Beaumont, Canada
Current Conditions -  °F | °C
As of 4:00 PM on Thursday 30 Oct 2014 (Local Time) from CYQX Reporting Station
Rain Showers Rain Showers  
Wind Chill: 61°   Ceiling: 3000
Heat Index: 61°   Visibility: 20mi
Dew Point: 54°   Wind: 17mph
Humidity: 77%   Direction: 240°WSW
Pressure: 29.57"   Gusts: 32mph
Location:  49.6°N, 55.68°W
Report Text: CYQX 301800Z 24015G28KT 20SM -SHRA SCT020 BKN030 BKN120 BKN250 16/12 A2957 RMK SC3SC2AC1CS1 SLP016 DENSITY ALT 1100FT
Loading
Personal Weather Stations






























Interactive Weather Map
Tropical Storm Tracking
New forecast layout! Learn more

10-Day Weather Forecast

Advertisements
Track Severe Weather on mobile